Time;durP1;ratioP1;P1;durP2;ratioP2;P2;SDS_P1;SDS_P2;PMS_P1;PMS_P2;Temp;Humidity;BMP_temperature;BMP_pressure;BME280_temperature;BME280_humidity;BME280_pressure;Samples;Min_cycle;Max_cycle;Signal;HPM_P1;HPM_P2
2021/06/06 00:02:05;;;;;;;15.60;13.97;;;;;;;;;;6217937;22;20452;-96
2021/06/06 00:38:44;;;;;;;15.80;14.27;;;;;;;;;;6237331;22;20420;-96
2021/06/06 01:08:11;;;;;;;13.63;12.33;;;;;;;;;;6266941;22;20455;-96
2021/06/06 01:13:52;;;;;;;15.60;14.00;;;;;;;;;;6244079;23;20391;-96
2021/06/06 01:16:27;;;;;;;17.80;14.70;;;;;;;;;;6239590;23;20445;-96
2021/06/06 01:21:56;;;;;;;15.70;14.10;;;;;;;;;;6239861;23;20427;-96
2021/06/06 02:09:45;;;;;;;14.63;13.00;;;;;;;;;;6159612;23;20469;-96
2021/06/06 02:12:11;;;;;;;15.17;12.20;;;;;;;;;;6292731;22;20421;-96
2021/06/06 02:14:48;;;;;;;14.80;13.10;;;;;;;;;;6295742;22;20416;-96
2021/06/06 02:29:02;;;;;;;15.10;13.50;;;;;;;;;;6176845;22;20386;-96
2021/06/06 02:31:44;;;;;;;14.03;12.50;;;;;;;;;;6241660;23;20414;-96
2021/06/06 02:34:13;;;;;;;13.57;12.07;;;;;;;;;;6234867;23;20419;-96
2021/06/06 02:48:42;;;;;;;14.57;12.93;;;;;;;;;;6163395;22;20420;-96
2021/06/06 03:03:08;;;;;;;16.20;14.63;;;;;;;;;;6297271;22;20409;-96
2021/06/06 03:05:43;;;;;;;14.93;13.33;;;;;;;;;;6267689;22;20449;-96
2021/06/06 03:10:54;;;;;;;15.87;14.17;;;;;;;;;;6241500;22;20436;-96
2021/06/06 03:13:23;;;;;;;19.87;16.67;;;;;;;;;;6303093;22;20396;-96
2021/06/06 03:21:14;;;;;;;18.67;14.07;;;;;;;;;;6281587;22;20490;-96
2021/06/06 03:43:31;;;;;;;19.40;16.30;;;;;;;;;;6278186;22;21008;-96
2021/06/06 03:45:58;;;;;;;20.67;17.00;;;;;;;;;;6290651;22;20416;-96
2021/06/06 03:48:37;;;;;;;20.97;17.57;;;;;;;;;;6302190;22;20420;-96
2021/06/06 03:51:04;;;;;;;20.73;18.53;;;;;;;;;;6300834;22;20405;-96
2021/06/06 03:53:30;;;;;;;20.40;18.30;;;;;;;;;;6292414;22;20405;-96
2021/06/06 03:55:57;;;;;;;21.00;17.00;;;;;;;;;;6290836;22;21040;-96
2021/06/06 03:58:23;;;;;;;19.63;17.50;;;;;;;;;;6290932;22;20416;-96
2021/06/06 04:00:53;;;;;;;20.47;18.27;;;;;;;;;;6291437;22;20405;-96
2021/06/06 04:03:23;;;;;;;22.77;18.03;;;;;;;;;;6268829;22;20401;-96
2021/06/06 04:05:51;;;;;;;21.83;17.73;;;;;;;;;;6296275;22;20451;-96
2021/06/06 04:08:21;;;;;;;20.10;18.07;;;;;;;;;;6269532;22;20700;-96
2021/06/06 04:10:48;;;;;;;21.17;17.20;;;;;;;;;;6293705;22;20447;-96
2021/06/06 04:13:15;;;;;;;18.53;16.70;;;;;;;;;;6292783;22;20500;-96
2021/06/06 04:15:44;;;;;;;19.77;17.20;;;;;;;;;;6293886;22;22289;-96
2021/06/06 04:18:14;;;;;;;21.17;17.57;;;;;;;;;;6293820;22;20940;-96
2021/06/06 04:26:58;;;;;;;20.97;17.00;;;;;;;;;;6219381;22;20463;-96
2021/06/06 04:35:12;;;;;;;17.60;15.80;;;;;;;;;;6294227;22;20393;-96
2021/06/06 04:37:39;;;;;;;18.73;16.37;;;;;;;;;;6295932;22;20566;-96
2021/06/06 04:40:07;;;;;;;17.23;15.43;;;;;;;;;;6296678;22;20431;-96
2021/06/06 04:42:33;;;;;;;19.60;15.07;;;;;;;;;;6290640;22;20445;-96
2021/06/06 04:45:12;;;;;;;19.13;16.30;;;;;;;;;;6292125;22;20413;-96
2021/06/06 04:48:04;;;;;;;17.00;15.20;;;;;;;;;;6294657;22;20452;-96
2021/06/06 04:50:32;;;;;;;17.13;15.07;;;;;;;;;;6292660;22;20421;-96
2021/06/06 04:52:58;;;;;;;19.23;15.00;;;;;;;;;;6292481;22;20408;-96
2021/06/06 04:55:24;;;;;;;19.20;17.07;;;;;;;;;;6294755;22;20459;-96
2021/06/06 04:57:50;;;;;;;17.13;15.43;;;;;;;;;;6296042;22;20452;-96
2021/06/06 05:00:19;;;;;;;22.93;16.63;;;;;;;;;;6292132;22;20405;-96
2021/06/06 05:02:57;;;;;;;18.77;16.77;;;;;;;;;;6295121;22;20424;-96
2021/06/06 05:08:44;;;;;;;18.43;16.63;;;;;;;;;;6295616;22;20403;-96
2021/06/06 05:11:12;;;;;;;19.30;16.83;;;;;;;;;;6289850;22;20424;-96
2021/06/06 05:14:14;;;;;;;19.50;16.07;;;;;;;;;;6307237;22;20476;-96
2021/06/06 05:16:40;;;;;;;18.83;16.70;;;;;;;;;;6292627;22;20447;-96
2021/06/06 05:19:06;;;;;;;18.90;16.20;;;;;;;;;;6295815;22;20409;-96
2021/06/06 05:21:33;;;;;;;18.70;16.77;;;;;;;;;;6305133;22;20419;-96
2021/06/06 05:26:51;;;;;;;24.73;15.73;;;;;;;;;;6306594;22;20420;-96
2021/06/06 05:29:18;;;;;;;16.20;14.57;;;;;;;;;;6298273;22;20442;-96
2021/06/06 05:31:45;;;;;;;17.13;15.23;;;;;;;;;;6292144;22;20417;-96
2021/06/06 05:34:33;;;;;;;15.60;14.10;;;;;;;;;;6285502;22;20425;-96
2021/06/06 05:36:59;;;;;;;17.77;15.73;;;;;;;;;;6299939;22;20440;-96
2021/06/06 05:39:26;;;;;;;17.80;15.20;;;;;;;;;;6265612;22;20486;-96
2021/06/06 05:47:13;;;;;;;16.07;13.77;;;;;;;;;;6261822;22;20212;-95
2021/06/06 05:49:45;;;;;;;15.70;14.00;;;;;;;;;;6283533;22;20427;-96
2021/06/06 05:52:11;;;;;;;14.97;13.57;;;;;;;;;;6302899;22;20385;-96
2021/06/06 05:54:39;;;;;;;16.50;14.80;;;;;;;;;;6302937;22;20408;-96
2021/06/06 06:02:40;;;;;;;17.03;14.10;;;;;;;;;;6247656;22;20424;-96
2021/06/06 06:05:07;;;;;;;15.30;13.77;;;;;;;;;;6291988;22;20401;-96
2021/06/06 06:07:34;;;;;;;20.07;14.30;;;;;;;;;;6299022;22;20431;-96
2021/06/06 06:12:46;;;;;;;16.60;14.50;;;;;;;;;;6305050;22;20404;-95
2021/06/06 06:15:15;;;;;;;21.70;16.47;;;;;;;;;;6295439;22;20412;-96
2021/06/06 06:17:46;;;;;;;18.33;13.87;;;;;;;;;;6292660;22;20452;-96
2021/06/06 06:22:55;;;;;;;15.93;13.73;;;;;;;;;;6290991;22;20408;-96
2021/06/06 06:25:21;;;;;;;16.10;14.40;;;;;;;;;;6294507;22;20786;-96
2021/06/06 06:27:48;;;;;;;16.13;14.53;;;;;;;;;;6296534;22;20470;-96
2021/06/06 06:30:25;;;;;;;17.10;13.43;;;;;;;;;;6297965;22;20391;-96
2021/06/06 06:32:53;;;;;;;15.00;13.50;;;;;;;;;;6296493;22;20483;-96
2021/06/06 06:35:20;;;;;;;14.80;13.20;;;;;;;;;;6297719;22;20468;-96
2021/06/06 06:38:10;;;;;;;15.43;13.80;;;;;;;;;;6290859;22;20468;-96
2021/06/06 06:40:37;;;;;;;14.93;13.43;;;;;;;;;;6290696;22;20812;-96
2021/06/06 06:46:06;;;;;;;15.07;13.47;;;;;;;;;;6244525;22;20459;-96
2021/06/06 06:48:34;;;;;;;15.20;13.60;;;;;;;;;;6294092;22;20414;-96
2021/06/06 06:51:01;;;;;;;15.57;13.90;;;;;;;;;;6292333;22;20424;-96
2021/06/06 06:53:29;;;;;;;14.30;12.90;;;;;;;;;;6293816;22;20411;-96
2021/06/06 06:55:56;;;;;;;13.20;11.80;;;;;;;;;;6295320;22;20422;-96
2021/06/06 06:58:32;;;;;;;13.60;12.27;;;;;;;;;;6304035;22;20466;-96
2021/06/06 07:01:29;;;;;;;14.77;11.77;;;;;;;;;;6302172;22;20479;-95
2021/06/06 07:09:39;;;;;;;13.47;11.93;;;;;;;;;;6219960;23;20416;-96
2021/06/06 07:14:39;;;;;;;13.00;11.60;;;;;;;;;;6269022;22;20434;-96
2021/06/06 07:17:05;;;;;;;12.40;11.30;;;;;;;;;;6281270;22;20457;-96
2021/06/06 07:19:32;;;;;;;13.50;12.10;;;;;;;;;;6299136;22;20725;-96
2021/06/06 07:22:00;;;;;;;13.30;12.10;;;;;;;;;;6304317;22;20431;-96
2021/06/06 07:24:26;;;;;;;14.77;11.67;;;;;;;;;;6301434;22;20422;-96
2021/06/06 07:29:41;;;;;;;12.50;11.40;;;;;;;;;;6301319;22;20440;-96
2021/06/06 07:32:09;;;;;;;13.20;12.00;;;;;;;;;;6301124;22;20390;-96
2021/06/06 07:34:39;;;;;;;12.87;11.77;;;;;;;;;;6293370;22;20410;-96
2021/06/06 07:37:30;;;;;;;13.30;12.00;;;;;;;;;;6299913;22;20648;-96
2021/06/06 07:40:12;;;;;;;12.70;11.60;;;;;;;;;;6296793;22;20416;-96
2021/06/06 07:42:47;;;;;;;12.57;11.47;;;;;;;;;;6278680;22;20956;-96
2021/06/06 07:47:53;;;;;;;12.80;11.70;;;;;;;;;;6263174;22;20436;-96
2021/06/06 07:50:21;;;;;;;11.63;10.70;;;;;;;;;;6259536;23;20409;-96
2021/06/06 07:55:18;;;;;;;11.57;10.57;;;;;;;;;;6183188;22;20444;-96
2021/06/06 07:57:47;;;;;;;9.80;9.00;;;;;;;;;;6299684;22;20452;-96
2021/06/06 08:00:16;;;;;;;11.40;10.30;;;;;;;;;;6289498;22;20461;-96
2021/06/06 08:02:44;;;;;;;9.70;8.90;;;;;;;;;;6289591;22;20408;-96
2021/06/06 08:05:18;;;;;;;10.83;9.20;;;;;;;;;;6299142;22;20403;-96
2021/06/06 08:07:44;;;;;;;11.13;10.10;;;;;;;;;;6292960;22;20509;-96
2021/06/06 08:10:13;;;;;;;9.57;8.67;;;;;;;;;;6295752;22;20413;-96
2021/06/06 08:12:43;;;;;;;11.37;10.30;;;;;;;;;;6302375;22;20460;-96
2021/06/06 08:20:27;;;;;;;11.10;9.50;;;;;;;;;;6302145;22;20440;-96
2021/06/06 08:22:54;;;;;;;10.40;9.57;;;;;;;;;;6297862;22;20405;-96
2021/06/06 08:28:12;;;;;;;10.40;9.30;;;;;;;;;;6291009;22;20440;-96
2021/06/06 08:30:40;;;;;;;8.70;8.00;;;;;;;;;;6303773;22;20436;-96
2021/06/06 08:33:07;;;;;;;9.10;8.30;;;;;;;;;;6299461;22;20486;-96
2021/06/06 08:35:34;;;;;;;9.23;8.40;;;;;;;;;;6273711;22;20536;-96
2021/06/06 08:38:01;;;;;;;9.17;8.30;;;;;;;;;;6267077;23;20476;-96
2021/06/06 08:40:29;;;;;;;8.63;8.03;;;;;;;;;;6299211;22;20432;-96
2021/06/06 08:42:55;;;;;;;11.37;8.10;;;;;;;;;;6298903;22;20420;-96
2021/06/06 08:45:47;;;;;;;8.67;7.83;;;;;;;;;;6301778;22;20485;-96
2021/06/06 08:48:16;;;;;;;9.63;7.60;;;;;;;;;;6292012;22;20461;-96
2021/06/06 08:50:44;;;;;;;8.37;7.67;;;;;;;;;;6297488;22;20403;-96
2021/06/06 08:53:15;;;;;;;8.20;7.60;;;;;;;;;;6294234;22;20419;-96
2021/06/06 08:55:56;;;;;;;8.60;7.80;;;;;;;;;;6292725;22;20456;-96
2021/06/06 08:58:29;;;;;;;7.50;6.90;;;;;;;;;;6301970;22;20421;-96
2021/06/06 09:01:01;;;;;;;7.80;7.20;;;;;;;;;;6304349;22;20426;-95
2021/06/06 09:03:44;;;;;;;8.13;7.43;;;;;;;;;;6277212;22;20403;-96
2021/06/06 09:06:15;;;;;;;9.67;8.73;;;;;;;;;;6301727;22;20414;-96
2021/06/06 09:08:41;;;;;;;8.40;7.70;;;;;;;;;;6291350;22;20523;-96
2021/06/06 09:11:12;;;;;;;8.07;7.10;;;;;;;;;;6303578;22;20429;-95
2021/06/06 09:16:23;;;;;;;7.70;7.00;;;;;;;;;;6291725;22;20442;-96
2021/06/06 09:19:04;;;;;;;7.77;7.07;;;;;;;;;;6295668;22;20415;-96
2021/06/06 09:21:34;;;;;;;7.73;7.13;;;;;;;;;;6297780;22;20416;-95
2021/06/06 09:24:33;;;;;;;7.60;7.00;;;;;;;;;;6287930;22;20419;-96
2021/06/06 09:27:10;;;;;;;7.73;7.13;;;;;;;;;;6262638;23;20426;-95
2021/06/06 09:29:36;;;;;;;7.60;6.83;;;;;;;;;;6258739;23;20405;-95
2021/06/06 09:32:08;;;;;;;8.00;7.40;;;;;;;;;;6265591;23;20410;-95
2021/06/06 09:34:37;;;;;;;8.20;7.50;;;;;;;;;;6264819;23;20409;-95
2021/06/06 09:37:19;;;;;;;8.60;7.83;;;;;;;;;;6269560;22;20460;-96
2021/06/06 09:40:10;;;;;;;8.33;7.63;;;;;;;;;;6302391;22;20403;-96
2021/06/06 09:42:40;;;;;;;7.60;7.00;;;;;;;;;;6292925;22;20420;-95
2021/06/06 09:45:26;;;;;;;8.23;7.57;;;;;;;;;;6299214;22;20409;-96
2021/06/06 09:48:16;;;;;;;8.60;7.73;;;;;;;;;;6301093;22;20423;-96
2021/06/06 09:50:54;;;;;;;8.20;7.50;;;;;;;;;;6258889;22;20442;-96
2021/06/06 10:02:07;;;;;;;8.20;7.70;;;;;;;;;;6279181;22;20460;-94
2021/06/06 10:04:53;;;;;;;9.83;7.10;;;;;;;;;;6296023;22;20542;-95
2021/06/06 10:07:50;;;;;;;8.00;7.40;;;;;;;;;;6297744;22;20468;-96
2021/06/06 10:19:01;;;;;;;7.83;7.13;;;;;;;;;;6235190;22;20445;-96
2021/06/06 10:24:28;;;;;;;7.20;6.50;;;;;;;;;;6292371;22;20460;-95
2021/06/06 10:27:32;;;;;;;7.30;6.80;;;;;;;;;;6299969;22;20392;-96
2021/06/06 10:30:04;;;;;;;7.23;6.73;;;;;;;;;;6303985;22;20413;-96
2021/06/06 10:32:44;;;;;;;6.93;6.43;;;;;;;;;;6271522;22;20405;-96
2021/06/06 10:35:14;;;;;;;6.17;5.67;;;;;;;;;;6277738;22;20460;-93
2021/06/06 10:37:42;;;;;;;6.93;6.43;;;;;;;;;;6295180;22;20448;-95
2021/06/06 10:40:11;;;;;;;6.60;6.10;;;;;;;;;;6295576;22;20711;-94
2021/06/06 10:45:22;;;;;;;6.93;6.43;;;;;;;;;;6215654;22;20463;-95
2021/06/06 10:51:28;;;;;;;7.07;6.57;;;;;;;;;;6306974;22;20336;-95
2021/06/06 11:23:58;;;;;;;7.87;7.17;;;;;;;;;;6244465;23;20419;-95
2021/06/06 11:26:42;;;;;;;7.83;7.33;;;;;;;;;;6245312;23;20443;-93
2021/06/06 11:37:56;;;;;;;7.87;7.37;;;;;;;;;;6204856;22;20430;-96
2021/06/06 12:02:25;;;;;;;7.70;7.10;;;;;;;;;;6281177;22;20440;-95
2021/06/06 12:04:55;;;;;;;7.70;7.10;;;;;;;;;;6302820;22;20393;-95
2021/06/06 12:10:36;;;;;;;6.87;6.27;;;;;;;;;;6236613;22;20448;-96
2021/06/06 12:16:54;;;;;;;7.10;6.60;;;;;;;;;;6109422;23;21056;-96
2021/06/06 12:34:17;;;;;;;7.37;6.87;;;;;;;;;;6269468;22;20448;-96
2021/06/06 12:39:19;;;;;;;7.20;6.80;;;;;;;;;;6276345;22;20455;-96
2021/06/06 12:41:53;;;;;;;6.90;6.33;;;;;;;;;;6298032;22;20397;-96
2021/06/06 12:44:21;;;;;;;7.03;6.53;;;;;;;;;;6301839;22;20373;-96
2021/06/06 12:46:52;;;;;;;7.57;7.07;;;;;;;;;;6299419;22;20480;-95
2021/06/06 12:51:55;;;;;;;7.17;6.67;;;;;;;;;;6283283;22;20448;-95
2021/06/06 12:57:26;;;;;;;7.57;6.87;;;;;;;;;;6298089;22;20432;-96
2021/06/06 13:00:04;;;;;;;7.63;7.03;;;;;;;;;;6295980;22;20486;-96
2021/06/06 13:03:13;;;;;;;8.63;7.80;;;;;;;;;;6301502;22;20432;-96
2021/06/06 13:05:50;;;;;;;8.30;7.70;;;;;;;;;;6302669;22;20464;-96
2021/06/06 13:11:34;;;;;;;8.43;7.73;;;;;;;;;;6302233;22;22563;-96
2021/06/06 13:16:37;;;;;;;8.73;7.40;;;;;;;;;;6284257;22;20462;-95
2021/06/06 13:21:39;;;;;;;10.50;7.97;;;;;;;;;;6266661;22;20419;-96
2021/06/06 13:24:14;;;;;;;8.80;8.00;;;;;;;;;;6268935;23;20410;-96
2021/06/06 13:26:42;;;;;;;8.50;7.80;;;;;;;;;;6268904;23;20409;-96
2021/06/06 13:29:14;;;;;;;9.37;8.37;;;;;;;;;;6267313;23;20942;-96
2021/06/06 13:31:56;;;;;;;8.50;7.80;;;;;;;;;;6269260;23;20461;-96
2021/06/06 13:37:07;;;;;;;9.33;8.63;;;;;;;;;;6234420;22;20476;-96
2021/06/06 13:39:37;;;;;;;9.40;8.70;;;;;;;;;;6270181;22;20475;-96
2021/06/06 13:42:04;;;;;;;9.00;8.20;;;;;;;;;;6269535;22;20445;-96
2021/06/06 13:44:37;;;;;;;8.60;7.87;;;;;;;;;;6272590;23;20385;-96
2021/06/06 13:47:04;;;;;;;10.00;8.60;;;;;;;;;;6273292;23;20408;-95
2021/06/06 13:49:40;;;;;;;8.87;8.13;;;;;;;;;;6270109;23;20414;-96
2021/06/06 13:52:12;;;;;;;8.73;7.83;;;;;;;;;;6270173;23;20402;-95
2021/06/06 13:54:55;;;;;;;11.60;8.70;;;;;;;;;;6274633;22;20398;-96
2021/06/06 13:57:22;;;;;;;9.97;9.07;;;;;;;;;;6270187;22;20469;-96
2021/06/06 14:00:00;;;;;;;9.20;8.40;;;;;;;;;;6264786;23;20390;-96
2021/06/06 14:02:32;;;;;;;9.53;8.53;;;;;;;;;;6264226;23;20406;-96
2021/06/06 14:07:43;;;;;;;9.47;8.43;;;;;;;;;;6270209;23;20418;-96
2021/06/06 14:10:21;;;;;;;9.23;8.33;;;;;;;;;;6266386;22;20414;-96
2021/06/06 14:12:53;;;;;;;10.53;8.43;;;;;;;;;;6264345;23;20410;-96
2021/06/06 14:18:04;;;;;;;10.90;9.20;;;;;;;;;;6229145;22;20556;-96
2021/06/06 14:30:57;;;;;;;9.63;8.83;;;;;;;;;;6189762;22;20461;-96
2021/06/06 14:33:24;;;;;;;11.33;9.50;;;;;;;;;;6242535;22;20427;-96
2021/06/06 14:39:02;;;;;;;12.20;10.87;;;;;;;;;;6206378;23;20460;-96
2021/06/06 14:41:32;;;;;;;24.00;14.70;;;;;;;;;;6195480;22;20441;-96
2021/06/06 14:46:26;;;;;;;9.60;8.70;;;;;;;;;;6296124;22;20465;-96
2021/06/06 14:48:53;;;;;;;11.13;10.03;;;;;;;;;;6302446;22;20555;-96
2021/06/06 14:51:41;;;;;;;12.97;11.60;;;;;;;;;;6299600;22;20396;-96
2021/06/06 14:54:09;;;;;;;15.70;14.30;;;;;;;;;;6302080;22;20397;-96
2021/06/06 14:56:39;;;;;;;15.17;13.60;;;;;;;;;;6277515;22;20412;-96
2021/06/06 14:59:31;;;;;;;15.60;14.03;;;;;;;;;;6302653;22;20404;-96
2021/06/06 15:05:26;;;;;;;15.40;13.80;;;;;;;;;;6203209;22;20521;-96
2021/06/06 15:08:03;;;;;;;16.07;14.57;;;;;;;;;;6269373;23;20402;-96
2021/06/06 15:16:34;;;;;;;15.20;13.80;;;;;;;;;;6305387;22;20439;-96
2021/06/06 15:21:43;;;;;;;14.50;13.10;;;;;;;;;;6266150;23;20442;-96
2021/06/06 15:24:10;;;;;;;14.40;13.10;;;;;;;;;;6243273;23;20418;-96
2021/06/06 15:26:40;;;;;;;13.47;12.07;;;;;;;;;;6268240;22;20467;-96
2021/06/06 15:29:07;;;;;;;14.80;13.40;;;;;;;;;;6231958;22;20453;-96
2021/06/06 15:31:39;;;;;;;12.80;11.60;;;;;;;;;;6266634;23;20401;-95
2021/06/06 15:34:06;;;;;;;12.87;11.77;;;;;;;;;;6243584;23;20386;-96
2021/06/06 15:36:34;;;;;;;14.77;12.33;;;;;;;;;;6270667;23;20415;-96
2021/06/06 15:39:02;;;;;;;14.00;12.53;;;;;;;;;;6246741;23;20413;-96
2021/06/06 15:41:28;;;;;;;13.17;12.07;;;;;;;;;;6241892;23;20410;-96
2021/06/06 15:43:55;;;;;;;14.97;13.67;;;;;;;;;;6268899;22;20423;-96
2021/06/06 15:46:36;;;;;;;14.90;13.60;;;;;;;;;;6273145;23;20477;-96
2021/06/06 15:49:02;;;;;;;13.80;12.60;;;;;;;;;;6254637;22;20484;-96
2021/06/06 15:51:32;;;;;;;9.40;8.60;;;;;;;;;;6267792;23;20394;-96
2021/06/06 15:53:58;;;;;;;9.73;8.93;;;;;;;;;;6273246;23;20404;-96
2021/06/06 16:01:44;;;;;;;7.80;7.10;;;;;;;;;;6269487;23;20421;-96
2021/06/06 16:04:15;;;;;;;7.83;7.00;;;;;;;;;;6208101;22;20446;-96
2021/06/06 16:06:43;;;;;;;7.70;7.10;;;;;;;;;;6245678;23;20407;-96
2021/06/06 16:09:13;;;;;;;8.33;7.63;;;;;;;;;;6244335;23;20473;-96
2021/06/06 16:11:44;;;;;;;9.53;8.60;;;;;;;;;;6247673;22;20448;-96
2021/06/06 16:14:10;;;;;;;8.80;8.00;;;;;;;;;;6304890;22;20385;-96
2021/06/06 16:16:37;;;;;;;8.97;8.17;;;;;;;;;;6301217;22;20393;-96
2021/06/06 16:21:42;;;;;;;9.37;8.57;;;;;;;;;;6297281;22;20451;-96
2021/06/06 16:26:50;;;;;;;9.47;8.67;;;;;;;;;;6268269;22;20474;-96
2021/06/06 16:29:25;;;;;;;10.70;9.60;;;;;;;;;;6248348;22;20402;-95
2021/06/06 18:25:58;;;;;;;8.93;8.13;;;;;;;;;;6225918;22;20429;31
2021/06/06 18:28:27;;;;;;;8.77;7.97;;;;;;;;;;6144687;23;20421;-96
2021/06/06 18:30:53;;;;;;;10.57;9.20;;;;;;;;;;6172172;23;20483;-96
2021/06/06 18:33:23;;;;;;;10.53;9.03;;;;;;;;;;6134631;23;20399;-94
2021/06/06 18:35:50;;;;;;;10.67;9.67;;;;;;;;;;6184819;23;20397;-96
2021/06/06 18:38:19;;;;;;;9.60;8.70;;;;;;;;;;6160596;23;20414;-96
2021/06/06 18:43:51;;;;;;;9.17;8.37;;;;;;;;;;6183617;23;20409;-94
2021/06/06 18:52:17;;;;;;;10.07;9.17;;;;;;;;;;6304245;22;20399;-96
2021/06/06 19:10:46;;;;;;;8.80;7.97;;;;;;;;;;6180431;22;20384;-96
2021/06/06 19:29:28;;;;;;;10.50;9.43;;;;;;;;;;6242829;23;20430;-96
2021/06/06 19:31:54;;;;;;;10.23;9.23;;;;;;;;;;6262677;23;20433;-96
2021/06/06 19:34:21;;;;;;;17.43;9.67;;;;;;;;;;6262979;23;20419;-96
2021/06/06 19:36:47;;;;;;;10.03;9.13;;;;;;;;;;6262222;23;20807;-96
2021/06/06 19:39:14;;;;;;;9.93;8.63;;;;;;;;;;6251104;22;20454;-96
2021/06/06 19:57:59;;;;;;;11.43;9.97;;;;;;;;;;6279774;22;20504;-96
2021/06/06 20:00:27;;;;;;;10.07;9.07;;;;;;;;;;6302818;22;20421;-96
2021/06/06 20:02:53;;;;;;;12.57;9.97;;;;;;;;;;6299200;22;20409;-96
2021/06/06 20:17:00;;;;;;;10.20;9.10;;;;;;;;;;6235969;22;20477;-96
2021/06/06 20:22:54;;;;;;;10.03;9.13;;;;;;;;;;6272533;22;20418;-96
2021/06/06 20:37:21;;;;;;;13.17;11.67;;;;;;;;;;6202124;22;20475;-96
2021/06/06 20:39:49;;;;;;;12.20;10.50;;;;;;;;;;6263783;23;20406;-94
2021/06/06 20:42:17;;;;;;;13.37;11.97;;;;;;;;;;6266158;23;20508;-96
2021/06/06 20:44:44;;;;;;;13.47;11.60;;;;;;;;;;6263718;23;20401;-93
2021/06/06 20:47:16;;;;;;;11.13;10.03;;;;;;;;;;6264659;23;20418;-96
2021/06/06 20:49:45;;;;;;;10.30;9.30;;;;;;;;;;6240123;23;20417;-96
2021/06/06 20:52:12;;;;;;;13.07;10.07;;;;;;;;;;6256023;23;20417;-96
2021/06/06 20:54:38;;;;;;;13.13;9.60;;;;;;;;;;6254488;23;20748;-96
2021/06/06 20:57:06;;;;;;;12.40;10.43;;;;;;;;;;6257882;23;20417;-96
2021/06/06 20:59:34;;;;;;;11.67;10.47;;;;;;;;;;6254989;23;20413;-92
2021/06/06 21:02:00;;;;;;;10.83;9.73;;;;;;;;;;6256443;23;20469;-91
2021/06/06 21:04:31;;;;;;;11.10;10.00;;;;;;;;;;6261080;23;20414;-94
2021/06/06 21:06:59;;;;;;;14.70;9.00;;;;;;;;;;6262304;23;20895;-94
2021/06/06 21:09:26;;;;;;;11.03;9.50;;;;;;;;;;6258252;23;20417;-93
2021/06/06 21:12:24;;;;;;;10.17;9.30;;;;;;;;;;6263863;23;20406;-96
2021/06/06 21:20:20;;;;;;;11.13;9.80;;;;;;;;;;6248412;22;20456;-96
2021/06/06 21:28:07;;;;;;;11.60;10.40;;;;;;;;;;6214237;22;20445;-96
2021/06/06 21:33:45;;;;;;;11.20;10.03;;;;;;;;;;6251586;22;20535;-96
2021/06/06 21:36:13;;;;;;;11.27;10.20;;;;;;;;;;6243940;22;20824;-96
2021/06/06 21:38:40;;;;;;;10.57;9.57;;;;;;;;;;6254275;23;20453;-95
2021/06/06 21:41:08;;;;;;;10.67;9.57;;;;;;;;;;6264632;23;20437;-96
2021/06/06 21:43:35;;;;;;;11.93;10.73;;;;;;;;;;6265252;23;20425;-96
2021/06/06 21:46:02;;;;;;;11.23;9.93;;;;;;;;;;6262091;23;20414;-96
2021/06/06 21:48:28;;;;;;;11.63;10.53;;;;;;;;;;6260437;23;20419;-96
2021/06/06 21:50:55;;;;;;;12.13;10.60;;;;;;;;;;6256261;23;20522;-96
2021/06/06 21:53:23;;;;;;;12.53;10.57;;;;;;;;;;6254061;23;20437;-96
2021/06/06 22:01:09;;;;;;;15.40;9.93;;;;;;;;;;6232733;22;20428;-96
2021/06/06 22:03:37;;;;;;;11.53;10.27;;;;;;;;;;6234111;23;20403;-96
2021/06/06 22:06:03;;;;;;;11.17;10.07;;;;;;;;;;6239487;23;20407;-96
2021/06/06 22:08:31;;;;;;;12.07;10.87;;;;;;;;;;6213686;23;20411;-96
2021/06/06 22:10:59;;;;;;;11.97;10.23;;;;;;;;;;6240223;23;20919;-96
2021/06/06 22:16:01;;;;;;;11.70;10.60;;;;;;;;;;6293193;22;20876;-96
2021/06/06 22:21:46;;;;;;;13.70;11.07;;;;;;;;;;6277378;22;20417;-96
2021/06/06 22:24:33;;;;;;;11.10;9.80;;;;;;;;;;6289706;22;20494;-96
2021/06/06 22:27:17;;;;;;;12.87;11.57;;;;;;;;;;6288739;22;20417;-96
2021/06/06 22:32:58;;;;;;;14.13;11.90;;;;;;;;;;6292638;22;20459;-95
2021/06/06 22:35:46;;;;;;;12.30;11.07;;;;;;;;;;6297986;22;20417;-96
2021/06/06 22:38:32;;;;;;;13.90;11.30;;;;;;;;;;6290067;22;20470;-96
2021/06/06 22:44:17;;;;;;;16.33;12.23;;;;;;;;;;6232431;22;20470;-96
2021/06/06 22:47:02;;;;;;;17.40;12.30;;;;;;;;;;6262884;23;20935;-96
2021/06/06 22:49:47;;;;;;;12.70;11.40;;;;;;;;;;6263998;22;20417;-96
2021/06/06 22:52:32;;;;;;;13.30;12.00;;;;;;;;;;6269076;23;20418;-96
2021/06/06 22:58:09;;;;;;;14.90;10.93;;;;;;;;;;6294240;22;20453;-96
2021/06/06 23:00:54;;;;;;;12.60;11.33;;;;;;;;;;6293563;22;20419;-96
2021/06/06 23:06:58;;;;;;;11.77;10.53;;;;;;;;;;6291404;22;20592;-96
2021/06/06 23:09:43;;;;;;;11.63;9.90;;;;;;;;;;6296661;22;20401;-96
2021/06/06 23:12:30;;;;;;;11.60;10.50;;;;;;;;;;6290337;22;20421;-96
2021/06/06 23:14:57;;;;;;;11.30;10.20;;;;;;;;;;6294459;22;20409;-96
2021/06/06 23:17:26;;;;;;;12.90;11.70;;;;;;;;;;6297369;22;20436;-96
2021/06/06 23:19:52;;;;;;;14.30;11.97;;;;;;;;;;6291823;22;20417;-96
2021/06/06 23:22:22;;;;;;;12.33;11.13;;;;;;;;;;6293395;22;20401;-96
2021/06/06 23:24:50;;;;;;;18.60;13.40;;;;;;;;;;6289449;22;20838;-96
2021/06/06 23:27:18;;;;;;;13.23;10.47;;;;;;;;;;6287560;22;20439;-96
2021/06/06 23:29:45;;;;;;;12.27;10.73;;;;;;;;;;6287866;22;20424;-96
2021/06/06 23:32:12;;;;;;;12.30;11.10;;;;;;;;;;6288319;22;20747;-96
2021/06/06 23:34:49;;;;;;;19.93;11.40;;;;;;;;;;6291889;22;20439;-96
2021/06/06 23:37:17;;;;;;;11.20;10.10;;;;;;;;;;6295860;22;20405;-96
2021/06/06 23:39:46;;;;;;;10.97;9.80;;;;;;;;;;6300409;22;20389;-96
2021/06/06 23:42:14;;;;;;;11.93;10.70;;;;;;;;;;6291258;22;20870;-96
2021/06/06 23:44:43;;;;;;;13.63;10.90;;;;;;;;;;6292240;22;20785;-96
2021/06/06 23:47:11;;;;;;;14.17;11.20;;;;;;;;;;6292652;22;20397;-96
2021/06/06 23:49:43;;;;;;;18.00;12.47;;;;;;;;;;6290368;22;20428;-96
2021/06/06 23:52:22;;;;;;;15.37;11.40;;;;;;;;;;6290410;22;20416;-96
2021/06/06 23:54:49;;;;;;;16.63;11.50;;;;;;;;;;6293687;22;20443;-96
2021/06/06 23:57:19;;;;;;;14.70;12.20;;;;;;;;;;6293666;22;20504;-96
